Time;durP1;ratioP1;P1;durP2;ratioP2;P2;SDS_P1;SDS_P2;PMS_P1;PMS_P2;Temp;Humidity;BMP_temperature;BMP_pressure;BME280_temperature;BME280_humidity;BME280_pressure;Samples;Min_cycle;Max_cycle;Signal;HPM_P1;HPM_P2
2023/10/22 00:01:00;;;;;;;4.18;1.20;;;17.10;99.90;;;;;;5049079;28;20048;-30
2023/10/22 00:03:26;;;;;;;5.63;1.05;;;16.70;99.90;;;;;;5053448;28;20110;-30
2023/10/22 00:05:52;;;;;;;4.13;1.30;;;16.80;99.90;;;;;;5053862;28;20037;-29
2023/10/22 00:08:21;;;;;;;6.10;1.80;;;;;;;;;;5047535;28;20045;-30
2023/10/22 00:10:47;;;;;;;6.32;1.50;;;17.30;99.90;;;;;;5049059;28;20033;-28
2023/10/22 00:13:12;;;;;;;4.95;1.17;;;16.80;99.90;;;;;;5048130;28;20033;-29
2023/10/22 00:15:39;;;;;;;6.32;1.42;;;;;;;;;;5047448;28;20050;-30
2023/10/22 00:18:05;;;;;;;5.13;1.48;;;16.60;99.90;;;;;;5037499;28;20556;-29
2023/10/22 00:20:31;;;;;;;4.28;1.20;;;16.90;99.90;;;;;;5048694;28;20121;-29
2023/10/22 00:22:58;;;;;;;5.10;1.35;;;16.50;99.90;;;;;;5044768;28;20049;-32
2023/10/22 00:25:24;;;;;;;5.32;1.52;;;16.70;99.90;;;;;;5045697;28;20032;-29
2023/10/22 00:27:50;;;;;;;5.40;1.27;;;;;;;;;;5045860;28;20129;-28
2023/10/22 00:30:16;;;;;;;4.03;1.10;;;16.80;99.90;;;;;;5044189;28;20131;-29
2023/10/22 00:32:41;;;;;;;6.28;1.33;;;16.80;99.90;;;;;;5043930;28;20119;-29
2023/10/22 00:35:07;;;;;;;4.30;1.05;;;17.10;99.90;;;;;;5048929;28;20032;-29
2023/10/22 00:37:33;;;;;;;5.35;1.10;;;16.80;99.90;;;;;;5044386;28;20471;-29
2023/10/22 00:39:58;;;;;;;4.25;1.10;;;17.00;99.90;;;;;;5047147;28;20041;-29
2023/10/22 00:42:25;;;;;;;3.72;1.30;;;;;;;;;;5046007;28;20072;-32
2023/10/22 00:44:50;;;;;;;5.10;1.35;;;17.20;99.90;;;;;;5049282;28;20100;-30
2023/10/22 00:47:16;;;;;;;4.22;1.20;;;17.10;99.90;;;;;;5049358;28;20068;-28
2023/10/22 00:49:43;;;;;;;3.72;1.20;;;16.30;99.90;;;;;;5051661;28;20033;-30
2023/10/22 00:52:09;;;;;;;8.52;1.20;;;16.80;99.90;;;;;;5042970;28;20060;-29
2023/10/22 00:54:35;;;;;;;4.63;1.45;;;16.70;99.90;;;;;;5051937;28;20033;-29
2023/10/22 00:57:02;;;;;;;3.65;1.10;;;17.10;99.90;;;;;;5047179;28;20041;-29
2023/10/22 00:59:28;;;;;;;5.10;1.00;;;17.30;99.90;;;;;;5069703;28;20040;-29
2023/10/22 01:01:54;;;;;;;4.72;1.10;;;;;;;;;;5048949;28;20102;-36
2023/10/22 01:04:20;;;;;;;4.38;1.27;;;16.70;99.90;;;;;;5052368;28;20043;-29
2023/10/22 01:06:46;;;;;;;5.47;1.33;;;;;;;;;;5049288;28;20029;-31
2023/10/22 01:09:12;;;;;;;6.65;1.20;;;16.80;99.90;;;;;;5058268;28;20487;-29
2023/10/22 01:11:55;;;;;;;4.30;1.08;;;;;;;;;;5050987;28;20086;-29
2023/10/22 01:14:20;;;;;;;4.93;1.25;;;17.00;99.90;;;;;;5049473;28;20064;-30
2023/10/22 01:16:46;;;;;;;3.92;1.17;;;16.50;99.90;;;;;;5057285;28;20496;-28
2023/10/22 01:19:12;;;;;;;3.78;1.05;;;16.70;99.90;;;;;;5052530;28;20041;-28
2023/10/22 01:21:38;;;;;;;5.20;1.33;;;16.80;99.90;;;;;;5053524;28;20591;-29
2023/10/22 01:24:04;;;;;;;2.88;1.00;;;17.10;99.90;;;;;;5053207;28;20036;-28
2023/10/22 01:26:29;;;;;;;5.60;1.35;;;17.00;99.90;;;;;;5058092;28;20454;-28
2023/10/22 01:28:55;;;;;;;4.43;1.20;;;16.60;99.90;;;;;;5053480;28;20094;-29
2023/10/22 01:31:21;;;;;;;3.10;1.23;;;16.70;99.90;;;;;;5055143;28;20083;-28
2023/10/22 01:33:46;;;;;;;5.28;1.27;;;16.80;99.90;;;;;;5059241;28;20063;-29
2023/10/22 01:36:12;;;;;;;3.53;0.90;;;16.80;99.90;;;;;;5051418;28;20110;-28
2023/10/22 01:38:38;;;;;;;4.20;1.10;;;16.60;99.90;;;;;;5048385;28;20037;-30
2023/10/22 01:41:08;;;;;;;2.38;0.80;;;16.50;99.90;;;;;;5044631;28;20035;-30
2023/10/22 01:43:34;;;;;;;4.75;1.20;;;16.90;99.90;;;;;;5048554;28;20052;-30
2023/10/22 01:46:00;;;;;;;4.07;0.90;;;16.80;99.90;;;;;;5054539;28;20040;-28
2023/10/22 01:48:26;;;;;;;5.03;1.58;;;16.70;99.90;;;;;;5055041;28;20029;-28
2023/10/22 01:50:52;;;;;;;5.07;1.10;;;16.60;99.90;;;;;;5049780;28;20178;-28
2023/10/22 01:53:17;;;;;;;3.45;1.13;;;16.00;99.90;;;;;;5052703;28;20128;-30
2023/10/22 01:55:43;;;;;;;4.32;1.05;;;16.70;99.90;;;;;;5049223;28;20037;-30
2023/10/22 01:58:09;;;;;;;5.82;1.15;;;16.00;99.90;;;;;;5050616;28;20171;-28
2023/10/22 02:00:34;;;;;;;2.83;0.90;;;16.60;99.90;;;;;;5051889;28;20032;-28
2023/10/22 02:03:00;;;;;;;4.70;1.10;;;16.10;99.90;;;;;;5051360;28;20040;-29
2023/10/22 02:05:25;;;;;;;2.72;0.80;;;16.70;99.90;;;;;;5047930;28;20029;-28
2023/10/22 02:07:51;;;;;;;3.65;1.10;;;16.60;99.90;;;;;;5070778;28;20110;-28
2023/10/22 02:10:17;;;;;;;3.83;1.05;;;;;;;;;;5042172;28;20070;-28
2023/10/22 02:12:43;;;;;;;3.30;1.25;;;15.90;99.90;;;;;;5043383;28;20087;-30
2023/10/22 02:15:09;;;;;;;4.18;1.27;;;16.70;99.90;;;;;;5050154;28;20032;-29
2023/10/22 02:17:35;;;;;;;3.88;0.90;;;16.90;99.90;;;;;;5046133;28;20041;-28
2023/10/22 02:20:01;;;;;;;4.20;1.10;;;;;;;;;;5045064;28;20037;-28
2023/10/22 02:22:27;;;;;;;2.72;0.90;;;15.90;99.90;;;;;;5041688;28;20121;-29
2023/10/22 02:24:54;;;;;;;3.15;1.10;;;;;;;;;;5047494;28;20760;-36
2023/10/22 02:27:20;;;;;;;4.43;1.02;;;16.70;99.90;;;;;;5038888;28;20103;-28
2023/10/22 02:29:45;;;;;;;3.13;0.90;;;16.70;99.90;;;;;;5038900;28;20527;-29
2023/10/22 02:32:11;;;;;;;3.50;0.90;;;16.70;99.90;;;;;;5048300;28;20086;-29
2023/10/22 02:34:37;;;;;;;2.75;0.88;;;16.30;99.90;;;;;;5043255;28;20033;-28
2023/10/22 02:37:03;;;;;;;3.38;1.00;;;16.20;99.90;;;;;;5049372;28;20041;-29
2023/10/22 02:39:28;;;;;;;3.15;1.00;;;16.60;99.90;;;;;;5043812;28;20037;-29
2023/10/22 02:41:54;;;;;;;3.20;1.10;;;16.10;99.90;;;;;;5045734;28;20041;-29
2023/10/22 02:44:21;;;;;;;3.47;1.20;;;17.20;99.90;;;;;;5050785;28;20033;-30
2023/10/22 02:46:47;;;;;;;3.03;0.98;;;16.00;99.90;;;;;;5049792;28;20033;-28
2023/10/22 02:49:12;;;;;;;5.03;1.67;;;16.60;99.90;;;;;;5046330;28;20408;-28
2023/10/22 02:51:38;;;;;;;3.15;0.95;;;16.60;99.90;;;;;;5046825;28;20560;-30
2023/10/22 02:54:04;;;;;;;4.82;1.30;;;16.70;99.90;;;;;;5050809;28;20044;-28
2023/10/22 02:56:29;;;;;;;2.15;0.82;;;16.60;99.90;;;;;;5044537;28;20045;-29
2023/10/22 02:58:55;;;;;;;3.22;0.90;;;;;;;;;;5045678;28;20068;-29
2023/10/22 03:01:22;;;;;;;3.38;1.02;;;15.90;99.90;;;;;;5050296;28;20048;-28
2023/10/22 03:03:48;;;;;;;5.20;1.23;;;17.00;99.90;;;;;;5051049;28;20037;-30
2023/10/22 03:06:14;;;;;;;3.53;1.00;;;16.60;99.90;;;;;;5051651;28;20210;-28
2023/10/22 03:08:41;;;;;;;3.08;1.00;;;;;;;;;;5050077;28;20116;-29
2023/10/22 03:11:15;;;;;;;3.25;1.02;;;;;;;;;;5048898;28;20512;-29
2023/10/22 03:13:40;;;;;;;3.97;1.10;;;16.60;99.90;;;;;;5045262;28;20072;-29
2023/10/22 03:16:08;;;;;;;2.58;0.90;;;17.00;99.90;;;;;;5048191;28;20064;-29
2023/10/22 03:18:33;;;;;;;3.13;1.08;;;16.80;99.90;;;;;;5047052;28;20488;-28
2023/10/22 03:20:59;;;;;;;3.33;1.17;;;16.60;99.90;;;;;;5051409;28;20059;-29
2023/10/22 03:23:25;;;;;;;3.65;1.00;;;16.60;99.90;;;;;;5049689;28;20036;-32
2023/10/22 03:25:51;;;;;;;3.05;0.90;;;16.70;99.90;;;;;;5053749;28;20037;-29
2023/10/22 03:28:16;;;;;;;2.85;0.90;;;15.90;99.90;;;;;;5045403;28;20116;-28
2023/10/22 03:30:42;;;;;;;4.50;0.90;;;17.00;99.90;;;;;;5048815;28;20037;-29
2023/10/22 03:33:10;;;;;;;3.17;1.10;;;16.60;99.90;;;;;;5049253;28;20432;-28
2023/10/22 03:35:36;;;;;;;5.05;1.23;;;16.60;99.90;;;;;;5052211;28;20072;-29
2023/10/22 03:38:03;;;;;;;5.32;1.15;;;15.90;99.90;;;;;;5046814;28;20531;-28
2023/10/22 03:40:31;;;;;;;4.22;1.02;;;16.50;99.90;;;;;;5049885;28;20045;-29
2023/10/22 03:42:57;;;;;;;3.17;0.90;;;16.50;99.90;;;;;;5048353;28;20124;-28
2023/10/22 03:45:23;;;;;;;3.58;1.00;;;16.90;99.90;;;;;;5037912;28;20112;-28
2023/10/22 03:47:49;;;;;;;4.10;1.00;;;16.50;99.90;;;;;;5040667;28;20610;-28
2023/10/22 03:50:14;;;;;;;4.03;1.10;;;16.60;99.90;;;;;;5045111;28;20064;-28
2023/10/22 03:52:40;;;;;;;3.03;1.00;;;16.30;99.90;;;;;;5042906;28;20412;-28
2023/10/22 03:55:06;;;;;;;4.20;1.52;;;16.50;99.90;;;;;;5042332;28;20133;-29
2023/10/22 03:57:32;;;;;;;3.13;1.00;;;16.70;99.90;;;;;;5048486;28;20648;-30
2023/10/22 03:59:57;;;;;;;3.28;1.00;;;16.50;99.90;;;;;;5045272;28;20033;-29
2023/10/22 04:02:23;;;;;;;3.30;1.00;;;16.80;99.90;;;;;;5043102;28;20067;-32
2023/10/22 04:04:49;;;;;;;3.15;1.10;;;;;;;;;;5042731;28;20045;-28
2023/10/22 04:07:15;;;;;;;3.00;1.00;;;16.90;99.90;;;;;;5045595;28;20037;-28
2023/10/22 04:09:40;;;;;;;3.33;1.00;;;16.50;99.90;;;;;;5040098;28;20040;-30
2023/10/22 04:12:08;;;;;;;2.97;1.13;;;16.50;99.90;;;;;;5051412;28;20463;-28
2023/10/22 04:14:34;;;;;;;5.47;1.42;;;15.80;99.90;;;;;;5045127;28;20447;-28
2023/10/22 04:17:00;;;;;;;3.60;1.15;;;16.50;99.90;;;;;;5049032;28;20563;-28
2023/10/22 04:19:25;;;;;;;5.47;1.67;;;16.40;99.90;;;;;;5048058;28;20041;-29
2023/10/22 04:21:51;;;;;;;4.20;1.33;;;16.80;99.90;;;;;;5042189;28;20492;-29
2023/10/22 04:24:17;;;;;;;3.67;1.20;;;16.50;99.90;;;;;;5042444;28;20033;-28
2023/10/22 04:26:43;;;;;;;4.25;1.48;;;;;;;;;;5043637;28;20175;-30
2023/10/22 04:29:08;;;;;;;3.35;1.38;;;16.20;99.90;;;;;;5046722;28;20162;-30
2023/10/22 04:31:34;;;;;;;3.72;1.20;;;16.40;99.90;;;;;;5050151;28;20070;-29
2023/10/22 04:34:00;;;;;;;3.92;1.50;;;16.40;99.90;;;;;;5044592;28;20043;-30
2023/10/22 04:36:25;;;;;;;4.05;1.38;;;16.60;99.90;;;;;;5046047;28;20129;-29
2023/10/22 04:38:51;;;;;;;5.05;1.98;;;;;;;;;;5040550;28;20076;-28
2023/10/22 04:41:17;;;;;;;5.50;2.05;;;16.80;99.90;;;;;;5049849;28;20042;-28
2023/10/22 04:43:43;;;;;;;5.82;1.80;;;16.40;99.90;;;;;;5040128;28;20041;-28
2023/10/22 04:46:09;;;;;;;4.68;1.85;;;16.90;99.90;;;;;;5050099;28;20068;-28
2023/10/22 04:48:34;;;;;;;4.90;2.00;;;16.00;99.90;;;;;;5052497;28;20059;-28
2023/10/22 04:51:07;;;;;;;4.38;2.15;;;16.60;99.90;;;;;;5046844;28;20045;-30
2023/10/22 04:53:36;;;;;;;5.32;2.10;;;;;;;;;;5046637;28;20084;-29
2023/10/22 04:56:05;;;;;;;4.93;2.20;;;16.70;99.90;;;;;;5043361;28;20037;-29
2023/10/22 04:58:32;;;;;;;5.22;2.50;;;16.20;99.90;;;;;;5047822;28;20033;-30
2023/10/22 05:00:58;;;;;;;5.20;2.42;;;16.40;99.90;;;;;;5042594;28;20039;-29
2023/10/22 05:03:24;;;;;;;5.32;2.88;;;15.60;99.90;;;;;;5049440;28;20041;-29
2023/10/22 05:05:50;;;;;;;5.22;3.30;;;16.70;99.90;;;;;;5047106;28;20041;-30
2023/10/22 05:08:15;;;;;;;5.78;2.95;;;16.30;99.90;;;;;;5049937;28;20073;-29
2023/10/22 05:10:41;;;;;;;6.90;3.20;;;15.60;99.90;;;;;;5037293;28;20037;-29
2023/10/22 05:13:10;;;;;;;7.20;2.95;;;16.10;99.90;;;;;;5050668;28;20408;-28
2023/10/22 05:15:36;;;;;;;5.57;3.10;;;16.70;99.90;;;;;;5043819;28;20037;-28
2023/10/22 05:18:07;;;;;;;6.15;2.92;;;;;;;;;;5047268;28;20045;-30
2023/10/22 05:20:33;;;;;;;4.95;2.40;;;15.80;99.90;;;;;;5038039;28;20165;-28
2023/10/22 05:22:59;;;;;;;5.35;2.25;;;16.70;99.90;;;;;;5049370;28;20048;-29
2023/10/22 05:25:25;;;;;;;5.60;2.33;;;16.90;99.90;;;;;;5044067;28;20029;-28
2023/10/22 05:27:51;;;;;;;6.18;1.70;;;;;;;;;;5045894;28;20091;-28
2023/10/22 05:30:17;;;;;;;3.97;1.30;;;16.70;99.90;;;;;;5049488;28;20048;-30
2023/10/22 05:32:43;;;;;;;5.72;1.27;;;16.80;99.90;;;;;;5044235;28;20070;-28
2023/10/22 05:35:09;;;;;;;3.72;1.30;;;;;;;;;;5046359;28;20182;-28
2023/10/22 05:37:34;;;;;;;4.05;1.10;;;15.90;99.90;;;;;;5032078;28;20137;-28
2023/10/22 05:40:01;;;;;;;3.05;0.90;;;;;;;;;;5045635;28;20124;-28
2023/10/22 05:42:27;;;;;;;3.70;1.20;;;;;;;;;;5027968;28;20052;-27
2023/10/22 05:44:53;;;;;;;7.93;1.23;;;;;;;;;;5043728;28;20039;-28
2023/10/22 05:47:19;;;;;;;5.80;1.20;;;;;;;;;;5051004;28;20126;-28
2023/10/22 05:49:44;;;;;;;4.10;1.17;;;16.40;99.90;;;;;;5045768;28;20084;-28
2023/10/22 05:52:10;;;;;;;6.53;1.30;;;16.20;99.90;;;;;;5049782;28;20207;-28
2023/10/22 05:54:36;;;;;;;9.98;1.60;;;16.60;99.90;;;;;;5045848;28;20037;-28
2023/10/22 05:57:02;;;;;;;9.52;1.85;;;16.10;99.90;;;;;;5046335;28;20112;-30
2023/10/22 05:59:28;;;;;;;7.10;1.60;;;16.50;99.90;;;;;;5045112;28;20037;-28
2023/10/22 06:01:54;;;;;;;6.50;1.60;;;15.70;99.90;;;;;;5046577;28;20037;-29
2023/10/22 06:04:20;;;;;;;8.35;1.85;;;16.80;99.90;;;;;;5044570;28;20045;-30
2023/10/22 06:06:45;;;;;;;9.75;1.73;;;16.10;99.90;;;;;;5046931;28;20192;-29
2023/10/22 06:09:12;;;;;;;9.57;2.30;;;16.30;99.90;;;;;;5046687;28;20410;-29
2023/10/22 06:11:39;;;;;;;8.27;1.88;;;;;;;;;;5044450;28;20069;-28
2023/10/22 06:14:05;;;;;;;8.85;1.92;;;16.00;99.90;;;;;;5042352;28;20496;-28
2023/10/22 06:16:31;;;;;;;8.57;1.70;;;16.10;99.90;;;;;;5046460;28;20092;-29
2023/10/22 06:18:57;;;;;;;7.57;1.42;;;;;;;;;;5048626;28;20155;-29
2023/10/22 06:21:23;;;;;;;5.63;1.63;;;;;;;;;;5047641;28;20059;-28
2023/10/22 06:23:50;;;;;;;9.02;2.00;;;;;;;;;;5047367;28;20464;-28
2023/10/22 06:26:17;;;;;;;7.57;1.50;;;16.00;99.90;;;;;;5044694;28;20044;-29
2023/10/22 06:28:43;;;;;;;7.13;1.50;;;16.50;99.90;;;;;;5039869;28;20037;-28
2023/10/22 06:31:10;;;;;;;6.50;1.30;;;;;;;;;;5047874;28;20044;-28
2023/10/22 06:33:36;;;;;;;7.78;1.70;;;;;;;;;;5046765;28;20410;-29
2023/10/22 06:36:15;;;;;;;6.47;1.60;;;;;;;;;;5048331;28;20033;-29
2023/10/22 06:38:45;;;;;;;10.50;2.67;;;16.20;99.90;;;;;;5048859;28;20037;-29
2023/10/22 06:41:18;;;;;;;10.80;2.90;;;15.90;99.90;;;;;;5043026;28;20082;-29
2023/10/22 06:43:44;;;;;;;9.85;2.83;;;;;;;;;;5043395;28;20102;-29
2023/10/22 06:46:10;;;;;;;9.98;2.20;;;16.00;99.90;;;;;;5040473;28;20331;-28
2023/10/22 06:48:36;;;;;;;13.65;2.33;;;16.70;99.90;;;;;;5048746;28;20120;-28
2023/10/22 06:51:03;;;;;;;7.95;1.90;;;;;;;;;;5044948;28;20108;-29
2023/10/22 06:53:30;;;;;;;8.00;2.10;;;16.40;99.90;;;;;;5039780;28;20091;-28
2023/10/22 06:55:56;;;;;;;8.02;2.22;;;15.60;99.90;;;;;;5043826;28;20048;-29
2023/10/22 06:58:22;;;;;;;5.93;1.80;;;16.50;99.90;;;;;;5024087;28;20041;-30
2023/10/22 07:00:47;;;;;;;8.98;2.38;;;16.60;99.90;;;;;;5037078;28;20045;-28
2023/10/22 07:03:13;;;;;;;6.03;1.60;;;15.70;99.90;;;;;;5043411;28;20043;-30
2023/10/22 07:05:38;;;;;;;9.02;2.38;;;15.90;99.90;;;;;;5045081;28;20120;-28
2023/10/22 07:08:04;;;;;;;6.85;2.13;;;16.30;99.90;;;;;;5034857;28;20520;-29
2023/10/22 07:10:30;;;;;;;7.22;1.67;;;15.80;99.90;;;;;;5044535;28;20479;-28
2023/10/22 07:12:58;;;;;;;8.38;2.00;;;15.30;99.90;;;;;;5036970;28;20045;-28
2023/10/22 07:15:24;;;;;;;14.93;2.72;;;;;;;;;;5045152;28;20079;-28
2023/10/22 07:17:51;;;;;;;10.88;2.67;;;15.90;99.90;;;;;;5073527;28;20073;-28
2023/10/22 07:20:17;;;;;;;9.63;2.45;;;16.40;99.90;;;;;;5048096;28;20033;-28
2023/10/22 07:22:43;;;;;;;10.38;2.50;;;15.30;99.90;;;;;;5048372;28;20053;-29
2023/10/22 07:25:09;;;;;;;8.38;2.70;;;16.10;99.90;;;;;;5046410;28;20591;-28
2023/10/22 07:27:34;;;;;;;10.60;2.55;;;15.40;99.90;;;;;;5037933;28;20039;-28
2023/10/22 07:30:00;;;;;;;11.73;2.88;;;15.90;99.90;;;;;;5042338;28;20033;-28
2023/10/22 07:32:26;;;;;;;7.70;2.42;;;15.90;99.90;;;;;;5041290;28;20455;-31
2023/10/22 07:34:52;;;;;;;6.90;2.30;;;16.30;99.90;;;;;;5045458;28;20041;-30
2023/10/22 07:37:17;;;;;;;9.60;2.20;;;15.30;99.90;;;;;;5044839;28;20047;-28
2023/10/22 07:39:43;;;;;;;9.63;2.53;;;15.90;99.90;;;;;;5045589;28;20051;-28
2023/10/22 07:42:09;;;;;;;8.45;2.35;;;15.90;99.90;;;;;;5037793;28;20427;-31
2023/10/22 07:44:34;;;;;;;9.90;2.40;;;15.70;99.90;;;;;;5040082;28;20041;-28
2023/10/22 07:47:00;;;;;;;9.00;2.60;;;16.40;99.90;;;;;;5044386;28;20037;-28
2023/10/22 07:49:26;;;;;;;8.40;2.17;;;;;;;;;;5048099;28;20033;-28
2023/10/22 07:51:51;;;;;;;7.35;2.00;;;16.60;99.90;;;;;;5039698;28;20039;-28
2023/10/22 07:54:17;;;;;;;9.10;2.60;;;15.40;99.90;;;;;;5031271;28;20034;-28
2023/10/22 07:56:43;;;;;;;6.53;1.98;;;16.50;99.90;;;;;;5031250;28;20041;-30
2023/10/22 07:59:08;;;;;;;9.45;2.05;;;15.70;99.90;;;;;;5037646;28;20046;-27
2023/10/22 08:01:34;;;;;;;9.68;2.10;;;15.80;99.90;;;;;;5044142;28;20040;-28
2023/10/22 08:03:59;;;;;;;6.68;1.77;;;15.20;99.90;;;;;;5042757;28;20586;-28
2023/10/22 08:06:25;;;;;;;9.50;2.38;;;16.40;99.90;;;;;;5037918;28;20036;-30
2023/10/22 08:08:54;;;;;;;5.88;1.98;;;;;;;;;;5039583;28;20041;-29
2023/10/22 08:11:21;;;;;;;9.60;2.63;;;15.60;99.90;;;;;;5047163;28;20130;-29
2023/10/22 08:13:47;;;;;;;5.70;2.10;;;16.20;99.90;;;;;;5038911;28;20049;-28
2023/10/22 08:16:13;;;;;;;4.57;1.50;;;;;;;;;;5047157;28;20044;-28
2023/10/22 08:18:41;;;;;;;7.25;1.55;;;;;;;;;;5024145;28;20497;-28
2023/10/22 08:21:07;;;;;;;7.03;1.90;;;;;;;;;;5036655;28;20117;-29
2023/10/22 08:23:33;;;;;;;6.88;1.83;;;15.80;99.90;;;;;;5040665;28;20049;-30
2023/10/22 08:25:59;;;;;;;7.60;2.00;;;15.50;99.90;;;;;;5038369;28;20107;-29
2023/10/22 08:28:25;;;;;;;6.57;1.55;;;;;;;;;;5053307;28;20029;-28
2023/10/22 08:30:51;;;;;;;4.55;1.33;;;15.80;99.90;;;;;;5033115;28;20052;-28
2023/10/22 08:33:17;;;;;;;5.20;1.30;;;;;;;;;;5047665;28;20454;-29
2023/10/22 08:35:43;;;;;;;7.28;1.50;;;15.80;99.90;;;;;;5043513;28;20464;-30
2023/10/22 08:38:09;;;;;;;5.47;1.80;;;16.60;99.90;;;;;;5040994;28;20077;-28
2023/10/22 08:40:41;;;;;;;6.25;1.52;;;;;;;;;;5042208;28;20056;-27
2023/10/22 08:43:11;;;;;;;7.82;1.80;;;;;;;;;;5052568;28;20060;-29
2023/10/22 08:45:37;;;;;;;4.90;1.38;;;;;;;;;;5047641;28;20112;-29
2023/10/22 08:48:06;;;;;;;4.47;1.20;;;;;;;;;;5033380;28;20073;-28
2023/10/22 08:50:33;;;;;;;15.98;2.50;;;;;;;;;;5043275;28;20076;-28
2023/10/22 08:52:59;;;;;;;4.45;1.10;;;;;;;;;;5034139;28;20103;-34
2023/10/22 08:55:28;;;;;;;6.82;1.60;;;15.30;99.90;;;;;;5051257;28;20084;-28
2023/10/22 08:57:54;;;;;;;6.25;1.23;;;;;;;;;;5038607;28;20072;-29
2023/10/22 09:00:22;;;;;;;5.32;1.10;;;;;;;;;;5048968;28;20399;-28
2023/10/22 09:02:49;;;;;;;3.88;1.05;;;15.90;99.90;;;;;;5046247;28;20052;-29
2023/10/22 09:05:14;;;;;;;3.22;0.98;;;16.20;99.90;;;;;;5031797;28;20512;-31
2023/10/22 09:07:51;;;;;;;3.65;1.05;;;;;;;;;;5039131;28;20029;-28
2023/10/22 09:10:30;;;;;;;5.15;1.13;;;15.40;99.90;;;;;;5044550;28;20041;-28
2023/10/22 09:13:13;;;;;;;6.78;1.40;;;;;;;;;;5054906;28;20055;-29
2023/10/22 09:15:42;;;;;;;5.13;1.52;;;;;;;;;;5050088;28;20056;-28
2023/10/22 09:18:08;;;;;;;3.35;1.15;;;;;;;;;;5074357;28;20070;-30
2023/10/22 09:20:34;;;;;;;3.40;1.00;;;16.00;99.90;;;;;;5050806;28;20559;-28
2023/10/22 09:23:14;;;;;;;5.53;1.30;;;;;;;;;;5058966;28;20123;-29
2023/10/22 09:25:45;;;;;;;4.80;1.58;;;15.30;99.90;;;;;;5067879;28;20107;-28
2023/10/22 09:28:22;;;;;;;5.35;1.58;;;15.80;99.90;;;;;;5058070;28;20492;-28
2023/10/22 09:30:56;;;;;;;5.32;1.13;;;15.70;99.90;;;;;;5050507;28;20030;-29
2023/10/22 09:33:22;;;;;;;;;;;;;;;;;;5049750;28;20194;-29
2023/10/22 09:36:03;;;;;;;10.82;1.40;;;;;;;;;;5053430;28;19974;-28
2023/10/22 09:38:45;;;;;;;5.45;1.33;;;15.70;99.90;;;;;;5058230;28;20071;-28
2023/10/22 09:41:19;;;;;;;4.88;1.40;;;;;;;;;;5050267;28;20042;-29
2023/10/22 09:43:45;;;;;;;;;;;16.40;99.90;;;;;;5051449;28;20169;-29
2023/10/22 09:46:11;;;;;;;5.60;1.00;;;15.30;99.90;;;;;;5049865;28;20012;-29
2023/10/22 09:48:41;;;;;;;6.65;1.52;;;;;;;;;;5062715;28;20622;-28
2023/10/22 09:51:08;;;;;;;6.05;1.70;;;;;;;;;;5055437;28;20045;-29
2023/10/22 09:53:39;;;;;;;7.55;1.60;;;;;;;;;;5057203;28;20139;-27
2023/10/22 09:56:06;;;;;;;3.38;0.98;;;;;;;;;;5057916;28;20543;-28
2023/10/22 09:58:39;;;;;;;5.05;1.38;;;16.20;99.90;;;;;;5057075;28;20116;-28
2023/10/22 10:01:06;;;;;;;4.65;1.30;;;15.80;99.90;;;;;;5051780;28;20052;-27
2023/10/22 10:03:32;;;;;;;4.38;1.00;;;15.70;99.90;;;;;;5051620;28;20044;-28
2023/10/22 10:05:58;;;;;;;4.88;1.20;;;15.50;99.90;;;;;;5059337;28;20124;-28
2023/10/22 10:08:25;;;;;;;3.95;1.00;;;16.40;99.90;;;;;;5053291;28;20112;-30
2023/10/22 10:10:51;;;;;;;4.93;1.10;;;15.80;99.90;;;;;;5050365;28;20038;-28
2023/10/22 10:13:17;;;;;;;5.65;1.20;;;;;;;;;;5044897;28;20063;-28
2023/10/22 10:15:43;;;;;;;4.07;1.05;;;15.70;99.90;;;;;;5049069;28;20040;-28
2023/10/22 10:18:09;;;;;;;6.43;1.33;;;15.60;99.90;;;;;;5059461;28;20036;-30
2023/10/22 10:20:39;;;;;;;4.50;1.20;;;16.50;99.90;;;;;;5049825;28;20064;-28
2023/10/22 10:23:12;;;;;;;4.30;1.40;;;;;;;;;;5044806;28;20041;-28
2023/10/22 10:25:40;;;;;;;4.87;1.20;;;15.70;99.90;;;;;;5058663;28;20032;-28
2023/10/22 10:28:11;;;;;;;5.22;1.50;;;15.80;99.90;;;;;;5045215;28;20050;-28
2023/10/22 10:30:37;;;;;;;6.80;1.40;;;;;;;;;;5056364;28;20028;-27
2023/10/22 10:33:12;;;;;;;3.28;1.00;;;;;;;;;;5054028;28;20087;-29
2023/10/22 10:35:46;;;;;;;5.97;1.60;;;15.40;99.90;;;;;;5044121;28;20041;-29
2023/10/22 10:38:15;;;;;;;4.45;1.40;;;;;;;;;;5046959;28;20052;-28
2023/10/22 10:40:48;;;;;;;5.00;1.40;;;;;;;;;;5046012;28;20045;-30
2023/10/22 10:43:15;;;;;;;4.63;1.60;;;15.80;99.90;;;;;;5042954;28;20053;-28
2023/10/22 10:46:23;;;;;;;5.82;1.00;;;16.10;99.90;;;;;;5045992;28;20036;-28
2023/10/22 10:48:49;;;;;;;5.43;1.10;;;15.80;99.90;;;;;;5047575;28;20040;-28
2023/10/22 10:51:17;;;;;;;3.05;0.95;;;16.00;99.90;;;;;;5050955;28;20079;-28
2023/10/22 10:54:02;;;;;;;6.80;1.33;;;15.80;99.90;;;;;;5053517;28;20041;-29
2023/10/22 10:56:44;;;;;;;;;;;16.20;99.90;;;;;;5056058;28;20103;-28
2023/10/22 10:59:10;;;;;;;5.07;1.10;;;15.80;99.90;;;;;;5052391;28;19925;-28
2023/10/22 11:01:37;;;;;;;4.55;1.10;;;;;;;;;;5043168;28;20032;-28
2023/10/22 11:04:08;;;;;;;5.28;1.00;;;;;;;;;;5048574;28;20349;-28
2023/10/22 11:06:36;;;;;;;4.05;1.17;;;15.70;99.90;;;;;;5044901;28;20044;-28
2023/10/22 11:09:05;;;;;;;4.38;1.05;;;16.50;99.90;;;;;;5059015;28;20101;-28
2023/10/22 11:11:34;;;;;;;3.50;1.08;;;;;;;;;;5054448;28;20083;-28
2023/10/22 11:14:11;;;;;;;4.53;1.10;;;;;;;;;;5057279;28;20072;-28
2023/10/22 11:16:50;;;;;;;2.88;0.88;;;;;;;;;;5048540;28;20037;-28
2023/10/22 11:19:23;;;;;;;1.90;0.70;;;15.10;99.90;;;;;;5044264;28;20057;-28
2023/10/22 11:21:49;;;;;;;5.10;1.13;;;15.50;99.90;;;;;;5043345;28;20099;-28
2023/10/22 11:24:16;;;;;;;3.70;1.00;;;;;;;;;;5043923;28;20102;-29
2023/10/22 11:26:43;;;;;;;3.38;0.80;;;15.70;99.90;;;;;;5050734;28;20041;-28
2023/10/22 11:29:09;;;;;;;2.80;0.90;;;15.80;99.90;;;;;;5044938;28;20036;-27
2023/10/22 11:31:35;;;;;;;3.75;0.93;;;15.70;99.90;;;;;;5046044;28;20121;-28
2023/10/22 11:34:16;;;;;;;1.90;0.70;;;;;;;;;;5056269;28;20037;-28
2023/10/22 11:36:42;;;;;;;3.35;0.75;;;15.70;99.90;;;;;;5047706;28;20048;-29
2023/10/22 11:39:15;;;;;;;2.58;0.82;;;;;;;;;;5049933;28;20045;-28
2023/10/22 11:41:41;;;;;;;3.15;0.82;;;;;;;;;;5057059;28;20162;-28
2023/10/22 11:44:08;;;;;;;2.80;0.95;;;;;;;;;;5054810;28;20083;-28
2023/10/22 11:46:41;;;;;;;3.03;0.90;;;15.80;99.90;;;;;;5050679;28;20067;-28
2023/10/22 11:49:07;;;;;;;3.90;0.88;;;15.70;99.90;;;;;;5049068;28;20133;-28
2023/10/22 11:51:43;;;;;;;2.30;0.80;;;15.70;99.90;;;;;;5044367;28;20120;-28
2023/10/22 11:54:09;;;;;;;2.05;0.75;;;;;;;;;;5050593;28;20094;-28
2023/10/22 11:56:35;;;;;;;3.60;0.90;;;15.20;99.90;;;;;;5029919;28;20503;-28
2023/10/22 11:59:00;;;;;;;2.78;0.90;;;16.20;99.90;;;;;;5041197;28;20041;-28
2023/10/22 12:01:30;;;;;;;2.80;0.90;;;15.50;99.90;;;;;;5053603;28;20393;-28
2023/10/22 12:03:55;;;;;;;2.60;0.80;;;15.70;99.90;;;;;;5040883;28;20400;-28
2023/10/22 12:06:21;;;;;;;4.93;1.10;;;;;;;;;;5050905;28;20033;-29
2023/10/22 12:08:47;;;;;;;6.22;1.10;;;16.20;99.90;;;;;;5054361;28;20040;-28
2023/10/22 12:11:13;;;;;;;3.28;0.85;;;15.60;99.90;;;;;;5060323;28;20055;-29
2023/10/22 12:13:38;;;;;;;3.88;1.20;;;15.60;99.90;;;;;;5050241;28;20049;-28
2023/10/22 12:16:04;;;;;;;4.53;1.00;;;15.50;99.90;;;;;;5057316;28;20511;-28
2023/10/22 12:18:31;;;;;;;2.72;0.80;;;15.60;99.90;;;;;;5050461;28;20045;-28
2023/10/22 12:20:58;;;;;;;3.58;1.00;;;;;;;;;;5056164;28;20041;-28
2023/10/22 12:23:24;;;;;;;3.97;0.95;;;16.10;99.90;;;;;;5055747;28;20106;-28
2023/10/22 12:25:52;;;;;;;1.95;0.73;;;;;;;;;;5049495;28;20313;-29
2023/10/22 12:28:18;;;;;;;3.53;1.02;;;15.40;99.90;;;;;;5050060;28;20041;-28
2023/10/22 12:30:46;;;;;;;5.53;1.17;;;15.60;99.90;;;;;;5051648;28;20037;-29
2023/10/22 12:33:12;;;;;;;3.10;0.90;;;16.00;99.90;;;;;;5046703;28;20066;-28
2023/10/22 12:35:43;;;;;;;6.35;1.45;;;;;;;;;;5047410;28;20068;-28
2023/10/22 12:38:09;;;;;;;5.25;1.13;;;15.90;99.90;;;;;;5051973;28;20071;-28
2023/10/22 12:40:36;;;;;;;3.95;1.00;;;;;;;;;;5047956;28;20072;-28
2023/10/22 12:43:02;;;;;;;3.33;0.90;;;15.60;99.90;;;;;;5047802;28;20049;-28
2023/10/22 12:45:29;;;;;;;5.18;1.50;;;16.30;99.90;;;;;;5045910;28;20037;-27
2023/10/22 12:47:55;;;;;;;3.75;0.73;;;;;;;;;;5045752;28;20471;-28
2023/10/22 12:50:21;;;;;;;3.60;1.00;;;15.20;99.90;;;;;;5050255;28;20044;-28
2023/10/22 12:52:53;;;;;;;3.58;1.20;;;;;;;;;;5049052;28;20504;-29
2023/10/22 12:55:22;;;;;;;3.33;0.80;;;;;;;;;;5052806;28;20037;-28
2023/10/22 12:57:47;;;;;;;2.67;0.85;;;15.30;99.90;;;;;;5047956;28;20033;-28
2023/10/22 13:00:13;;;;;;;2.13;0.85;;;16.30;99.90;;;;;;5050079;28;20030;-29
2023/10/22 13:02:40;;;;;;;4.75;0.90;;;;;;;;;;5045088;28;20106;-29
2023/10/22 13:05:07;;;;;;;5.30;0.90;;;15.00;99.90;;;;;;5050432;28;20104;-28
2023/10/22 13:07:33;;;;;;;3.55;0.80;;;15.40;99.90;;;;;;5043564;28;20040;-28
2023/10/22 13:10:04;;;;;;;1.88;0.75;;;;;;;;;;5028956;28;20087;-30
2023/10/22 13:12:31;;;;;;;2.97;0.85;;;15.70;99.90;;;;;;5050223;28;20430;-28
2023/10/22 13:14:57;;;;;;;4.32;0.90;;;15.60;99.90;;;;;;5048776;28;20120;-28